Today's  Data File

11/17/19
Time         Wind Dir   Wind Spd  Wind Gust   Humidity    Temp In       Temp  Raw Barom   Tot Rain Wind Chill Heat Index  Dew Point   Barom SL  Press Alt  DailyRain   HourRain   24HrRain   RainRate
                            mph        mph          %         F         F         in         in         F         F         F         in         ft         in         in         in      in/hr
12:00am           282          0          0         39       73.8       37.8      30.22      31.40       37.8       37.6       15.1      30.33       -278       0.00       0.00       0.00      0.000
12:01am           214          1          3         39       73.8       37.8      30.22      31.40       37.8       37.6       15.1      30.33       -279       0.00       0.00       0.00      0.000
12:02am           214          1          1         40       73.9       37.8      30.22      31.40       37.8       37.7       15.7      30.33       -278       0.00       0.00       0.00      0.000
12:03am           233          2          2         40       73.8       37.8      30.22      31.40       37.3       37.7       15.7      30.33       -278       0.00       0.00       0.00      0.000
12:04am           125          3          4         39       73.8       37.8      30.22      31.40       35.9       37.6       15.1      30.33       -278       0.00       0.00       0.00      0.000
12:05am           130          2          3         39       73.8       37.8      30.22      31.40       37.3       37.6       15.1      30.33       -279       0.00       0.00       0.00      0.000
12:06am            60          5          6         39       73.8       37.8      30.22      31.40       33.9       37.6       15.1      30.33       -277       0.00       0.00       0.00      0.000
12:07am            84          1          5         39       73.8       37.8      30.22      31.40       37.8       37.6       15.1      30.33       -275       0.00       0.00       0.00      0.000
12:08am           300          1          3         39       73.8       37.8      30.22      31.40       37.8       37.6       15.1      30.33       -275       0.00       0.00       0.00      0.000
12:09am             7          5         10         38       73.8       37.8      30.22      31.40       33.9       37.6       14.5      30.33       -275       0.00       0.00       0.00      0.000
12:10am           146          2          5         38       73.8       37.8      30.22      31.40       37.3       37.6       14.5      30.33       -275       0.00       0.00       0.00      0.000
12:11am           137          0          4         39       73.8       37.8      30.22      31.40       37.8       37.6       15.1      30.33       -274       0.00       0.00       0.00      0.000
12:12am           137          0          0         38       73.8       37.8      30.22      31.40       37.8       37.6       14.5      30.33       -276       0.00       0.00       0.00      0.000
12:13am           288          0          1         38       73.8       37.8      30.22      31.40       37.8       37.6       14.5      30.33       -276       0.00       0.00       0.00      0.000
12:14am           246          0          0         39       73.8       37.8      30.22      31.40       37.8       37.6       15.1      30.33       -276       0.00       0.00       0.00      0.000
12:15am           121          3          3         39       73.8       37.8      30.22      31.40       35.9       37.6       15.1      30.33       -277       0.00       0.00       0.00      0.000
12:16am           359          3          3         39       73.8       37.8      30.22      31.40       35.9       37.6       15.1      30.33       -276       0.00       0.00       0.00      0.000
12:17am           208          2          3         38       73.8       37.8      30.22      31.40       37.3       37.6       14.5      30.33       -277       0.00       0.00       0.00      0.000
12:18am           208          1          2         39       73.8       37.8      30.22      31.40       37.8       37.6       15.1      30.33       -275       0.00       0.00       0.00      0.000
12:19am           167          2          2         39       73.8       37.8      30.22      31.40       37.3       37.6       15.1      30.33       -276       0.00       0.00       0.00      0.000
12:20am           167          0          2         39       73.8       37.8      30.22      31.40       37.8       37.6       15.1      30.33       -274       0.00       0.00       0.00      0.000
12:21am           213          2          3         39       73.8       37.8      30.22      31.40       37.3       37.6       15.1      30.33       -274       0.00       0.00       0.00      0.000
12:22am           173          5          6         39       73.8       37.8      30.22      31.40       33.9       37.6       15.1      30.33       -272       0.00       0.00       0.00      0.000
12:23am             7          4          7         38       73.9       37.8      30.22      31.40       34.8       37.6       14.5      30.33       -272       0.00       0.00       0.00      0.000
12:24am           319          1          4         38       73.8       37.8      30.21      31.40       37.8       37.6       14.5      30.33       -271       0.00       0.00       0.00      0.000
12:25am           303          0          2         38       73.8       37.8      30.21      31.40       37.8       37.6       14.5      30.33       -271       0.00       0.00       0.00      0.000
12:26am           220          2          4         39       73.8       37.8      30.21      31.40       37.3       37.6       15.1      30.33       -271       0.00       0.00       0.00      0.000
12:27am           195          2          6         39       73.8       37.9      30.21      31.40       37.5       37.7       15.2      30.32       -268       0.00       0.00       0.00      0.000
12:28am           142          1          5         38       73.9       37.9      30.21      31.40       37.9       37.7       14.6      30.32       -269       0.00       0.00       0.00      0.000
12:29am           170          3          3         38       73.8       37.8      30.21      31.40       35.9       37.6       14.5      30.32       -267       0.00       0.00       0.00      0.000
12:30am           279          1          3         38       73.8       37.9      30.21      31.40       37.9       37.7       14.6      30.32       -266       0.00       0.00       0.00      0.000
12:31am           317          3          5         38       73.8       37.8      30.21      31.40       35.9       37.6       14.5      30.32       -269       0.00       0.00       0.00      0.000
12:32am           321          4          7         38       73.8       37.9      30.21      31.40       34.9       37.7       14.6      30.32       -266       0.00       0.00       0.00      0.000
12:33am            63          2          5         38       73.8       37.8      30.21      31.40       37.3       37.6       14.5      30.32       -268       0.00       0.00       0.00      0.000
12:34am           191          3          4         38       73.8       37.8      30.21      31.40       35.9       37.6       14.5      30.32       -268       0.00       0.00       0.00      0.000
12:35am           113          3          4         38       73.8       37.8      30.21      31.40       35.9       37.6       14.5      30.32       -268       0.00       0.00       0.00      0.000
12:36am           157          1          4         38       73.8       37.8      30.21      31.40       37.8       37.6       14.5      30.32       -270       0.00       0.00       0.00      0.000
12:37am            99          1          3         38       73.8       37.8      30.21      31.40       37.8       37.6       14.5      30.32       -269       0.00       0.00       0.00      0.000
12:38am           100          2          2         38       73.8       37.8      30.21      31.40       37.3       37.6       14.5      30.32       -269       0.00       0.00       0.00      0.000
12:39am           100          3          3         38       73.8       37.8      30.21      31.40       35.9       37.6       14.5      30.32       -269       0.00       0.00       0.00      0.000
12:40am           161          0          3         38       73.8       37.8      30.21      31.40       37.8       37.6       14.5      30.32       -265       0.00       0.00       0.00      0.000
12:41am           198          1          4         38       73.9       37.8      30.21      31.40       37.8       37.6       14.5      30.32       -266       0.00       0.00       0.00      0.000
12:42am           150          2          3         38       73.8       37.8      30.21      31.40       37.3       37.6       14.5      30.32       -266       0.00       0.00       0.00      0.000
12:43am             1          1          2         38       73.8       37.8      30.21      31.40       37.8       37.6       14.5      30.32       -264       0.00       0.00       0.00      0.000
12:44am           130          2          2         38       73.8       37.8      30.21      31.40       37.3       37.6       14.5      30.32       -264       0.00       0.00       0.00      0.000
12:45am           157          1          3         38       73.8       37.8      30.21      31.40       37.8       37.6       14.5      30.32       -263       0.00       0.00       0.00      0.000
12:46am            10          2          4         38       73.8       37.8      30.20      31.40       37.3       37.6       14.5      30.32       -262       0.00       0.00       0.00      0.000
12:47am           103          2          7         38       73.8       37.8      30.20      31.40       37.3       37.6       14.5      30.32       -262       0.00       0.00       0.00      0.000
12:48am           277          3          4         38       73.8       37.8      30.20      31.40       35.9       37.6       14.5      30.32       -262       0.00       0.00       0.00      0.000
12:49am           311          2          5         38       73.8       37.8      30.20      31.40       37.3       37.6       14.5      30.31       -261       0.00       0.00       0.00      0.000
12:50am           165          4          4         38       73.8       37.8      30.20      31.40       34.8       37.6       14.5      30.31       -260       0.00       0.00       0.00      0.000
12:51am           316          3          7         38       73.8       37.8      30.20      31.40       35.9       37.6       14.5      30.31       -261       0.00       0.00       0.00      0.000
12:52am           115          0          3         38       73.8       37.8      30.20      31.40       37.8       37.6       14.5      30.31       -261       0.00       0.00       0.00      0.000
12:53am           155          1          3         38       73.8       37.8      30.20      31.40       37.8       37.6       14.5      30.31       -261       0.00       0.00       0.00      0.000
12:54am           170          4          4         38       73.8       37.8      30.20      31.40       34.8       37.6       14.5      30.32       -262       0.00       0.00       0.00      0.000
12:55am           159          2          4         38       73.8       37.8      30.20      31.40       37.3       37.6       14.5      30.32       -261       0.00       0.00       0.00      0.000
12:56am           150          1          3         38       73.8       37.7      30.20      31.40       37.7       37.5       14.4      30.32       -261       0.00       0.00       0.00      0.000
12:57am           360          1          5         38       73.8       37.7      30.20      31.40       37.7       37.5       14.4      30.32       -261       0.00       0.00       0.00      0.000
12:58am            11          2          3         38       73.8       37.7      30.20      31.40       37.2       37.5       14.4      30.32       -261       0.00       0.00       0.00      0.000
12:59am           187          3          6         38       73.8       37.7      30.20      31.40       35.8       37.5       14.4      30.31       -261       0.00       0.00       0.00      0.000
1:00am            264          3          5         38       73.8       37.7      30.20      31.40       35.8       37.5       14.4      30.31       -260       0.00       0.00       0.00      0.000
1:01am            299          3          3         38       73.8       37.7      30.20      31.40       35.8       37.5       14.4      30.31       -260       0.00       0.00       0.00      0.000
1:02am            165          4          4         38       73.8       37.7      30.20      31.40       34.7       37.5       14.4      30.31       -261       0.00       0.00       0.00      0.000
1:03am            203          1          5         38       73.8       37.7      30.20      31.40       37.7       37.5       14.4      30.31       -261       0.00       0.00       0.00      0.000
1:04am            229          1          3         38       73.8       37.7      30.20      31.40       37.7       37.5       14.4      30.32       -261       0.00       0.00       0.00      0.000

Updated Automatically by Ambient Weather's Virtual Weather Station  V15.00
All rights reserved. Unauthorized duplication or distribution is prohibited
Never base important decisions on this or any weather information obtained from the Internet